EGJB

Guernsey Airport

Saint Peter Port, Guernsey
METAR EGJB 210520Z 29006KT 0200 R27/0325 FG OVC000 17/17 Q1021
Observed Flight Rules
Aug-21 @ 05:20 UTC (9 hours ago) Instrument Flight Rules
Wind Visibility Clouds Conditions
290° at 6 knots 193 meters
  • Overcast
  • Fog
Temperatures Readings
Current 17°C / 63°F
Dewpoint 17°C / 63°F
Humidity 100%
Altimeter 30.15" Hg
Pressure 1021 hPa
Elevation 102
METAR EGJB 210520Z 29006KT 0200 R27/0325 FG OVC000 17/17 Q1021
Observed Flight Rules
Aug-21 @ 05:20 UTC
(9 hours ago)
LIFR
Wind Visibility
290° at 6 knots 193 meters
Clouds
  • Overcast
Conditions
  • Fog
Temperature Dewpoint
17°C / 63°F 17°C / 63°F
Humidity Altimeter Pressure
100% 30.15" Hg 1021 hPa